sensor_id;sensor_type;location;lat;lon;timestamp;pressure;altitude;pressure_sealevel;temperature;humidity
22743;BME280;11538;48.884;8.696;2023-02-26T00:01:39;98321.69;;;2.57;59.25
22743;BME280;11538;48.884;8.696;2023-02-26T00:04:08;98324.06;;;2.53;58.93
22743;BME280;11538;48.884;8.696;2023-02-26T00:06:38;98325.34;;;2.45;59.38
22743;BME280;11538;48.884;8.696;2023-02-26T00:09:21;98331.25;;;2.47;59.35
22743;BME280;11538;48.884;8.696;2023-02-26T00:11:48;98324.56;;;2.45;59.69
22743;BME280;11538;48.884;8.696;2023-02-26T00:14:17;98336.06;;;2.45;59.67
22743;BME280;11538;48.884;8.696;2023-02-26T00:16:51;98332.84;;;2.43;59.31
22743;BME280;11538;48.884;8.696;2023-02-26T00:19:22;98339.25;;;2.42;59.77
22743;BME280;11538;48.884;8.696;2023-02-26T00:21:49;98325.34;;;2.45;59.53
22743;BME280;11538;48.884;8.696;2023-02-26T00:24:19;98333.13;;;2.47;59.66
22743;BME280;11538;48.884;8.696;2023-02-26T00:26:46;98338.50;;;2.47;58.86
22743;BME280;11538;48.884;8.696;2023-02-26T00:29:13;98340.34;;;2.46;59.77
22743;BME280;11538;48.884;8.696;2023-02-26T00:31:41;98333.38;;;2.45;60.20
22743;BME280;11538;48.884;8.696;2023-02-26T00:34:12;98333.38;;;2.45;59.87
22743;BME280;11538;48.884;8.696;2023-02-26T00:39:58;98329.09;;;2.44;60.10
22743;BME280;11538;48.884;8.696;2023-02-26T00:42:31;98339.03;;;2.49;59.18
22743;BME280;11538;48.884;8.696;2023-02-26T00:44:59;98337.09;;;2.39;59.69
22743;BME280;11538;48.884;8.696;2023-02-26T00:47:44;98333.31;;;2.35;60.31
22743;BME280;11538;48.884;8.696;2023-02-26T00:50:21;98339.25;;;2.42;59.79
22743;BME280;11538;48.884;8.696;2023-02-26T00:53:13;98333.91;;;2.42;60.18
22743;BME280;11538;48.884;8.696;2023-02-26T00:55:43;98328.81;;;2.41;59.80
22743;BME280;11538;48.884;8.696;2023-02-26T00:58:12;98338.66;;;2.35;60.17
22743;BME280;11538;48.884;8.696;2023-02-26T01:00:38;98335.66;;;2.26;60.27
22743;BME280;11538;48.884;8.696;2023-02-26T01:03:06;98340.69;;;2.17;61.05
22743;BME280;11538;48.884;8.696;2023-02-26T01:05:33;98341.53;;;2.23;60.90
22743;BME280;11538;48.884;8.696;2023-02-26T01:08:26;98333.78;;;2.27;61.08
22743;BME280;11538;48.884;8.696;2023-02-26T01:10:57;98336.16;;;2.18;61.10
22743;BME280;11538;48.884;8.696;2023-02-26T01:13:25;98337.97;;;2.12;61.66
22743;BME280;11538;48.884;8.696;2023-02-26T01:16:02;98343.81;;;2.09;60.74
22743;BME280;11538;48.884;8.696;2023-02-26T01:18:52;98335.78;;;2.09;61.38
22743;BME280;11538;48.884;8.696;2023-02-26T01:21:35;98336.44;;;2.22;61.14
22743;BME280;11538;48.884;8.696;2023-02-26T01:24:07;98336.94;;;2.18;61.28
22743;BME280;11538;48.884;8.696;2023-02-26T01:26:37;98333.50;;;2.23;60.85
22743;BME280;11538;48.884;8.696;2023-02-26T01:29:04;98340.59;;;2.07;61.27
22743;BME280;11538;48.884;8.696;2023-02-26T01:31:58;98337.88;;;2.02;61.48
22743;BME280;11538;48.884;8.696;2023-02-26T01:34:54;98338.19;;;2.06;61.92
22743;BME280;11538;48.884;8.696;2023-02-26T01:37:35;98336.91;;;2.13;61.39
22743;BME280;11538;48.884;8.696;2023-02-26T01:41:02;98349.22;;;2.14;61.81
22743;BME280;11538;48.884;8.696;2023-02-26T01:43:50;98343.81;;;2.09;61.76
22743;BME280;11538;48.884;8.696;2023-02-26T01:49:37;98345.44;;;2.10;61.29
22743;BME280;11538;48.884;8.696;2023-02-26T01:55:00;98338.69;;;2.02;61.15
22743;BME280;11538;48.884;8.696;2023-02-26T01:57:27;98346.88;;;1.90;61.77
22743;BME280;11538;48.884;8.696;2023-02-26T01:59:54;98339.91;;;1.89;62.09
22743;BME280;11538;48.884;8.696;2023-02-26T02:02:23;98345.25;;;1.89;61.97
22743;BME280;11538;48.884;8.696;2023-02-26T02:04:52;98345.94;;;1.80;62.15
22743;BME280;11538;48.884;8.696;2023-02-26T02:07:19;98344.78;;;1.70;62.75
22743;BME280;11538;48.884;8.696;2023-02-26T02:09:46;98345.34;;;1.72;62.95
22743;BME280;11538;48.884;8.696;2023-02-26T02:12:40;98350.28;;;1.86;62.85
22743;BME280;11538;48.884;8.696;2023-02-26T02:15:41;98351.31;;;1.80;62.93
22743;BME280;11538;48.884;8.696;2023-02-26T02:18:37;98354.25;;;1.78;62.68
22743;BME280;11538;48.884;8.696;2023-02-26T02:21:42;98359.44;;;1.63;63.28
22743;BME280;11538;48.884;8.696;2023-02-26T02:30:08;98362.28;;;1.56;63.95
22743;BME280;11538;48.884;8.696;2023-02-26T02:33:14;98360.56;;;1.67;63.73
22743;BME280;11538;48.884;8.696;2023-02-26T02:35:59;98361.06;;;1.64;64.08
22743;BME280;11538;48.884;8.696;2023-02-26T02:38:46;98358.56;;;1.57;63.84
22743;BME280;11538;48.884;8.696;2023-02-26T02:41:57;98355.22;;;1.44;64.28
22743;BME280;11538;48.884;8.696;2023-02-26T02:44:28;98365.41;;;1.48;64.37
22743;BME280;11538;48.884;8.696;2023-02-26T02:46:58;98366.78;;;1.50;64.35
22743;BME280;11538;48.884;8.696;2023-02-26T02:49:51;98359.78;;;1.44;64.14
22743;BME280;11538;48.884;8.696;2023-02-26T02:52:41;98370.63;;;1.37;64.53
22743;BME280;11538;48.884;8.696;2023-02-26T02:55:20;98358.41;;;1.41;64.69
22743;BME280;11538;48.884;8.696;2023-02-26T02:58:04;98370.69;;;1.42;64.57
22743;BME280;11538;48.884;8.696;2023-02-26T03:00:39;98370.69;;;1.42;64.58
22743;BME280;11538;48.884;8.696;2023-02-26T03:03:36;98373.56;;;1.36;65.07
22743;BME280;11538;48.884;8.696;2023-02-26T03:06:05;98371.56;;;1.26;65.42
22743;BME280;11538;48.884;8.696;2023-02-26T03:08:40;98367.03;;;1.26;65.08
22743;BME280;11538;48.884;8.696;2023-02-26T03:11:08;98369.13;;;1.24;65.58
22743;BME280;11538;48.884;8.696;2023-02-26T03:13:37;98372.50;;;1.14;67.14
22743;BME280;11538;48.884;8.696;2023-02-26T03:19:16;98371.69;;;1.14;67.19
22743;BME280;11538;48.884;8.696;2023-02-26T03:22:09;98376.53;;;1.17;68.47
22743;BME280;11538;48.884;8.696;2023-02-26T03:24:47;98373.31;;;1.15;69.16
22743;BME280;11538;48.884;8.696;2023-02-26T03:27:34;98374.22;;;1.04;69.04
22743;BME280;11538;48.884;8.696;2023-02-26T03:30:34;98382.31;;;1.09;68.60
22743;BME280;11538;48.884;8.696;2023-02-26T03:36:09;98392.56;;;1.17;67.32
22743;BME280;11538;48.884;8.696;2023-02-26T03:41:41;98398.97;;;1.16;67.78
22743;BME280;11538;48.884;8.696;2023-02-26T03:44:20;98398.72;;;1.17;67.89
22743;BME280;11538;48.884;8.696;2023-02-26T03:46:57;98408.59;;;1.17;67.42
22743;BME280;11538;48.884;8.696;2023-02-26T03:49:48;98401.34;;;1.12;67.75
22743;BME280;11538;48.884;8.696;2023-02-26T03:52:16;98400.22;;;1.08;68.42
22743;BME280;11538;48.884;8.696;2023-02-26T03:55:07;98409.78;;;1.04;69.37
22743;BME280;11538;48.884;8.696;2023-02-26T03:57:36;98408.66;;;1.00;69.20
22743;BME280;11538;48.884;8.696;2023-02-26T04:00:07;98418.00;;;1.02;68.58
22743;BME280;11538;48.884;8.696;2023-02-26T04:05:29;98414.28;;;1.04;67.43
22743;BME280;11538;48.884;8.696;2023-02-26T04:07:58;98411.88;;;1.02;67.41
22743;BME280;11538;48.884;8.696;2023-02-26T04:10:37;98408.16;;;1.03;67.18
22743;BME280;11538;48.884;8.696;2023-02-26T04:13:06;98420.63;;;0.97;67.04
22743;BME280;11538;48.884;8.696;2023-02-26T04:15:33;98424.59;;;0.95;67.44
22743;BME280;11538;48.884;8.696;2023-02-26T04:18:03;98437.13;;;0.94;67.49
22743;BME280;11538;48.884;8.696;2023-02-26T04:20:30;98429.44;;;0.98;67.32
22743;BME280;11538;48.884;8.696;2023-02-26T04:22:57;98435.22;;;0.90;67.84
22743;BME280;11538;48.884;8.696;2023-02-26T04:25:24;98431.47;;;0.91;67.62
22743;BME280;11538;48.884;8.696;2023-02-26T04:27:52;98431.28;;;0.97;67.42
22743;BME280;11538;48.884;8.696;2023-02-26T04:30:19;98436.00;;;0.90;67.62
22743;BME280;11538;48.884;8.696;2023-02-26T04:32:46;98435.44;;;0.88;67.30
22743;BME280;11538;48.884;8.696;2023-02-26T04:35:13;98434.22;;;0.79;67.68
22743;BME280;11538;48.884;8.696;2023-02-26T04:37:40;98442.50;;;0.77;67.93
22743;BME280;11538;48.884;8.696;2023-02-26T04:40:08;98444.75;;;0.85;68.06
22743;BME280;11538;48.884;8.696;2023-02-26T04:42:34;98449.44;;;0.95;67.87
22743;BME280;11538;48.884;8.696;2023-02-26T04:45:02;98451.38;;;1.00;67.88
22743;BME280;11538;48.884;8.696;2023-02-26T04:47:29;98456.31;;;0.91;68.10
22743;BME280;11538;48.884;8.696;2023-02-26T04:49:56;98458.53;;;0.77;68.47
22743;BME280;11538;48.884;8.696;2023-02-26T04:52:23;98456.91;;;0.76;68.85
22743;BME280;11538;48.884;8.696;2023-02-26T04:54:50;98454.06;;;0.83;68.23
22743;BME280;11538;48.884;8.696;2023-02-26T04:57:18;98449.78;;;0.82;68.20
22743;BME280;11538;48.884;8.696;2023-02-26T04:59:45;98449.84;;;0.87;68.06
22743;BME280;11538;48.884;8.696;2023-02-26T05:02:12;98455.44;;;0.85;68.17
22743;BME280;11538;48.884;8.696;2023-02-26T05:04:38;98451.88;;;0.80;68.72
22743;BME280;11538;48.884;8.696;2023-02-26T05:07:06;98462.00;;;0.78;68.40
22743;BME280;11538;48.884;8.696;2023-02-26T05:09:32;98460.78;;;0.68;68.75
22743;BME280;11538;48.884;8.696;2023-02-26T05:11:59;98459.00;;;0.74;68.71
22743;BME280;11538;48.884;8.696;2023-02-26T05:14:26;98467.03;;;0.74;68.81
22743;BME280;11538;48.884;8.696;2023-02-26T05:16:53;98470.88;;;0.66;68.75
22743;BME280;11538;48.884;8.696;2023-02-26T05:19:20;98473.69;;;0.60;69.60
22743;BME280;11538;48.884;8.696;2023-02-26T05:21:47;98468.63;;;0.58;69.89
22743;BME280;11538;48.884;8.696;2023-02-26T05:24:15;98466.03;;;0.63;69.34
22743;BME280;11538;48.884;8.696;2023-02-26T05:26:42;98463.22;;;0.70;69.27
22743;BME280;11538;48.884;8.696;2023-02-26T05:29:09;98467.81;;;0.75;69.17
22743;BME280;11538;48.884;8.696;2023-02-26T05:31:36;98479.28;;;0.58;69.77
22743;BME280;11538;48.884;8.696;2023-02-26T05:34:04;98480.56;;;0.55;69.86
22743;BME280;11538;48.884;8.696;2023-02-26T05:36:31;98483.88;;;0.63;69.46
22743;BME280;11538;48.884;8.696;2023-02-26T05:38:58;98487.94;;;0.65;69.64
22743;BME280;11538;48.884;8.696;2023-02-26T05:41:24;98491.97;;;0.51;69.60
22743;BME280;11538;48.884;8.696;2023-02-26T05:43:52;98494.69;;;0.39;69.95
22743;BME280;11538;48.884;8.696;2023-02-26T05:46:19;98493.44;;;0.41;69.83
22743;BME280;11538;48.884;8.696;2023-02-26T05:48:46;98496.84;;;0.54;70.09
22743;BME280;11538;48.884;8.696;2023-02-26T05:51:13;98495.06;;;0.60;69.73
22743;BME280;11538;48.884;8.696;2023-02-26T05:53:40;98498.63;;;0.65;69.46
22743;BME280;11538;48.884;8.696;2023-02-26T05:56:06;98506.56;;;0.60;69.52
22743;BME280;11538;48.884;8.696;2023-02-26T05:58:34;98511.63;;;0.62;69.33
22743;BME280;11538;48.884;8.696;2023-02-26T06:01:01;98507.50;;;0.54;69.40
22743;BME280;11538;48.884;8.696;2023-02-26T06:03:28;98514.94;;;0.52;69.85
22743;BME280;11538;48.884;8.696;2023-02-26T06:05:55;98517.75;;;0.45;70.06
22743;BME280;11538;48.884;8.696;2023-02-26T06:08:21;98514.88;;;0.47;70.55
22743;BME280;11538;48.884;8.696;2023-02-26T06:10:50;98520.44;;;0.45;70.39
22743;BME280;11538;48.884;8.696;2023-02-26T06:13:18;98519.53;;;0.39;71.39
22743;BME280;11538;48.884;8.696;2023-02-26T06:15:44;98525.44;;;0.41;72.78
22743;BME280;11538;48.884;8.696;2023-02-26T06:18:13;98527.78;;;0.38;72.63
22743;BME280;11538;48.884;8.696;2023-02-26T06:20:40;98529.97;;;0.41;71.99
22743;BME280;11538;48.884;8.696;2023-02-26T06:23:07;98535.06;;;0.42;71.09
22743;BME280;11538;48.884;8.696;2023-02-26T06:25:33;98532.25;;;0.49;70.94
22743;BME280;11538;48.884;8.696;2023-02-26T06:28:01;98541.28;;;0.48;70.67
22743;BME280;11538;48.884;8.696;2023-02-26T06:30:27;98547.06;;;0.57;70.44
22743;BME280;11538;48.884;8.696;2023-02-26T06:32:54;98545.75;;;0.60;70.38
22743;BME280;11538;48.884;8.696;2023-02-26T06:35:21;98560.72;;;0.61;70.35
22743;BME280;11538;48.884;8.696;2023-02-26T06:37:48;98571.19;;;0.62;69.86
22743;BME280;11538;48.884;8.696;2023-02-26T06:40:15;98571.41;;;0.61;69.90
22743;BME280;11538;48.884;8.696;2023-02-26T06:42:42;98575.03;;;0.54;70.06
22743;BME280;11538;48.884;8.696;2023-02-26T06:45:09;98582.72;;;0.51;70.53
22743;BME280;11538;48.884;8.696;2023-02-26T06:47:36;98587.69;;;0.59;70.33
22743;BME280;11538;48.884;8.696;2023-02-26T06:50:04;98595.44;;;0.61;70.24
22743;BME280;11538;48.884;8.696;2023-02-26T06:52:32;98595.06;;;0.69;70.23
22743;BME280;11538;48.884;8.696;2023-02-26T06:54:59;98594.06;;;0.58;69.52
22743;BME280;11538;48.884;8.696;2023-02-26T06:57:26;98599.22;;;0.48;70.10
22743;BME280;11538;48.884;8.696;2023-02-26T06:59:53;98598.75;;;0.51;70.67
22743;BME280;11538;48.884;8.696;2023-02-26T07:02:21;98613.63;;;0.64;69.87
22743;BME280;11538;48.884;8.696;2023-02-26T07:04:49;98600.84;;;0.66;70.25
22743;BME280;11538;48.884;8.696;2023-02-26T07:07:15;98605.41;;;0.65;70.16
22743;BME280;11538;48.884;8.696;2023-02-26T07:09:43;98613.84;;;0.74;69.99
22743;BME280;11538;48.884;8.696;2023-02-26T07:12:12;98618.53;;;0.67;70.03
22743;BME280;11538;48.884;8.696;2023-02-26T07:14:39;98621.06;;;0.62;70.09
22743;BME280;11538;48.884;8.696;2023-02-26T07:17:06;98621.66;;;0.64;70.04
22743;BME280;11538;48.884;8.696;2023-02-26T07:19:33;98629.22;;;0.67;69.97
22743;BME280;11538;48.884;8.696;2023-02-26T07:22:00;98637.31;;;0.72;69.85
22743;BME280;11538;48.884;8.696;2023-02-26T07:24:27;98629.44;;;0.65;70.00
22743;BME280;11538;48.884;8.696;2023-02-26T07:26:54;98636.19;;;0.56;70.61
22743;BME280;11538;48.884;8.696;2023-02-26T07:29:21;98645.34;;;0.60;71.08
22743;BME280;11538;48.884;8.696;2023-02-26T07:31:48;98646.97;;;0.61;70.94
22743;BME280;11538;48.884;8.696;2023-02-26T07:34:15;98648.50;;;0.57;70.93
22743;BME280;11538;48.884;8.696;2023-02-26T07:36:42;98653.09;;;0.62;71.25
22743;BME280;11538;48.884;8.696;2023-02-26T07:39:10;98661.09;;;0.73;71.21
22743;BME280;11538;48.884;8.696;2023-02-26T07:41:37;98652.13;;;0.80;70.23
22743;BME280;11538;48.884;8.696;2023-02-26T07:44:04;98654.22;;;0.78;69.93
22743;BME280;11538;48.884;8.696;2023-02-26T07:46:31;98652.13;;;0.80;70.00
22743;BME280;11538;48.884;8.696;2023-02-26T07:48:58;98658.78;;;0.94;69.76
22743;BME280;11538;48.884;8.696;2023-02-26T07:51:25;98663.09;;;0.95;69.12
22743;BME280;11538;48.884;8.696;2023-02-26T07:53:52;98660.66;;;0.94;68.92
22743;BME280;11538;48.884;8.696;2023-02-26T07:56:19;98661.94;;;0.91;69.27
22743;BME280;11538;48.884;8.696;2023-02-26T07:58:46;98657.16;;;0.93;69.28
22743;BME280;11538;48.884;8.696;2023-02-26T08:01:13;98665.19;;;0.93;69.48
22743;BME280;11538;48.884;8.696;2023-02-26T08:03:40;98666.41;;;1.02;69.28
22743;BME280;11538;48.884;8.696;2023-02-26T08:06:07;98669.34;;;1.01;68.99
22743;BME280;11538;48.884;8.696;2023-02-26T08:08:34;98667.56;;;1.07;69.01
22743;BME280;11538;48.884;8.696;2023-02-26T08:11:02;98668.78;;;1.16;68.31
22743;BME280;11538;48.884;8.696;2023-02-26T08:13:29;98660.84;;;1.21;68.65
22743;BME280;11538;48.884;8.696;2023-02-26T08:15:56;98660.81;;;1.33;67.74
22743;BME280;11538;48.884;8.696;2023-02-26T08:18:22;98659.69;;;1.46;67.61
22743;BME280;11538;48.884;8.696;2023-02-26T08:20:50;98658.72;;;1.52;66.68
22743;BME280;11538;48.884;8.696;2023-02-26T08:23:37;98656.94;;;1.41;67.75
22743;BME280;11538;48.884;8.696;2023-02-26T08:26:23;98660.75;;;1.45;67.12
22743;BME280;11538;48.884;8.696;2023-02-26T08:29:09;98661.94;;;1.54;67.31
22743;BME280;11538;48.884;8.696;2023-02-26T08:31:55;98668.03;;;1.67;66.62
22743;BME280;11538;48.884;8.696;2023-02-26T08:34:40;98676.28;;;1.82;66.21
22743;BME280;11538;48.884;8.696;2023-02-26T08:37:26;98675.53;;;1.87;65.75
22743;BME280;11538;48.884;8.696;2023-02-26T08:40:12;98683.25;;;1.83;65.76
22743;BME280;11538;48.884;8.696;2023-02-26T08:42:59;98685.69;;;1.68;66.55
22743;BME280;11538;48.884;8.696;2023-02-26T08:45:46;98687.06;;;1.53;66.82
22743;BME280;11538;48.884;8.696;2023-02-26T08:48:32;98690.88;;;1.57;65.78
22743;BME280;11538;48.884;8.696;2023-02-26T08:50:59;98693.16;;;1.66;66.12
22743;BME280;11538;48.884;8.696;2023-02-26T08:53:25;98689.53;;;1.94;65.47
22743;BME280;11538;48.884;8.696;2023-02-26T08:55:53;98690.78;;;1.86;64.62
22743;BME280;11538;48.884;8.696;2023-02-26T08:58:20;98698.38;;;1.95;65.14
22743;BME280;11538;48.884;8.696;2023-02-26T09:00:47;98696.84;;;1.99;65.19
22743;BME280;11538;48.884;8.696;2023-02-26T09:03:14;98692.38;;;2.04;65.47
22743;BME280;11538;48.884;8.696;2023-02-26T09:05:41;98701.38;;;1.98;65.51
22743;BME280;11538;48.884;8.696;2023-02-26T09:08:08;98702.19;;;1.99;65.67
22743;BME280;11538;48.884;8.696;2023-02-26T09:10:38;98703.03;;;1.99;65.89
22743;BME280;11538;48.884;8.696;2023-02-26T09:13:07;98699.53;;;1.99;65.88
22743;BME280;11538;48.884;8.696;2023-02-26T09:15:34;98709.81;;;2.07;65.84
22743;BME280;11538;48.884;8.696;2023-02-26T09:18:01;98712.56;;;2.12;65.99
22743;BME280;11538;48.884;8.696;2023-02-26T09:20:28;98714.44;;;2.12;66.49
22743;BME280;11538;48.884;8.696;2023-02-26T09:22:55;98715.78;;;2.14;66.30
22743;BME280;11538;48.884;8.696;2023-02-26T09:25:22;98717.25;;;2.05;66.73
22743;BME280;11538;48.884;8.696;2023-02-26T09:27:49;98725.00;;;2.01;66.46
22743;BME280;11538;48.884;8.696;2023-02-26T09:30:17;98725.38;;;1.93;67.29
22743;BME280;11538;48.884;8.696;2023-02-26T09:32:44;98726.03;;;2.00;68.02
22743;BME280;11538;48.884;8.696;2023-02-26T09:35:11;98732.03;;;1.90;67.82
22743;BME280;11538;48.884;8.696;2023-02-26T09:37:39;98731.53;;;1.94;68.25
22743;BME280;11538;48.884;8.696;2023-02-26T09:40:09;98731.88;;;1.80;68.00
22743;BME280;11538;48.884;8.696;2023-02-26T09:43:09;98736.75;;;1.83;68.67
22743;BME280;11538;48.884;8.696;2023-02-26T09:45:43;98737.63;;;1.89;68.39
22743;BME280;11538;48.884;8.696;2023-02-26T09:48:15;98743.59;;;1.96;68.23
22743;BME280;11538;48.884;8.696;2023-02-26T09:50:52;98735.91;;;2.00;67.92
22743;BME280;11538;48.884;8.696;2023-02-26T09:55:50;98745.97;;;2.10;67.30
22743;BME280;11538;48.884;8.696;2023-02-26T09:58:33;98744.84;;;2.06;66.03
22743;BME280;11538;48.884;8.696;2023-02-26T10:04:21;98740.50;;;2.22;66.11
22743;BME280;11538;48.884;8.696;2023-02-26T10:12:45;98749.59;;;2.60;65.36
22743;BME280;11538;48.884;8.696;2023-02-26T10:20:34;98738.72;;;2.67;65.27
22743;BME280;11538;48.884;8.696;2023-02-26T10:25:47;98753.56;;;2.74;64.46
22743;BME280;11538;48.884;8.696;2023-02-26T10:28:34;98750.31;;;2.72;64.29
22743;BME280;11538;48.884;8.696;2023-02-26T10:31:34;98754.63;;;2.73;64.27
22743;BME280;11538;48.884;8.696;2023-02-26T10:40:02;98757.97;;;2.63;64.26
22743;BME280;11538;48.884;8.696;2023-02-26T10:43:00;98760.13;;;2.67;63.29
22743;BME280;11538;48.884;8.696;2023-02-26T10:48:54;98763.97;;;2.93;62.39
22743;BME280;11538;48.884;8.696;2023-02-26T10:51:38;98767.75;;;2.97;61.95
22743;BME280;11538;48.884;8.696;2023-02-26T10:54:19;98764.63;;;3.05;61.51
22743;BME280;11538;48.884;8.696;2023-02-26T10:56:47;98766.00;;;3.08;61.41
22743;BME280;11538;48.884;8.696;2023-02-26T10:59:14;98759.00;;;3.07;61.34
22743;BME280;11538;48.884;8.696;2023-02-26T11:01:42;98765.13;;;3.02;61.46
22743;BME280;11538;48.884;8.696;2023-02-26T11:04:15;98759.66;;;2.92;62.06
22743;BME280;11538;48.884;8.696;2023-02-26T11:06:59;98766.88;;;2.91;62.59
22743;BME280;11538;48.884;8.696;2023-02-26T11:09:46;98760.00;;;3.01;62.32
22743;BME280;11538;48.884;8.696;2023-02-26T11:12:14;98768.63;;;3.03;62.67
22743;BME280;11538;48.884;8.696;2023-02-26T11:14:44;98764.56;;;3.00;62.08
22743;BME280;11538;48.884;8.696;2023-02-26T11:17:25;98774.97;;;2.97;63.14
22743;BME280;11538;48.884;8.696;2023-02-26T11:22:53;98778.59;;;3.07;63.27
22743;BME280;11538;48.884;8.696;2023-02-26T11:25:29;98780.31;;;3.19;62.21
22743;BME280;11538;48.884;8.696;2023-02-26T11:28:31;98775.72;;;3.14;61.91
22743;BME280;11538;48.884;8.696;2023-02-26T11:31:05;98779.38;;;3.30;61.11
22743;BME280;11538;48.884;8.696;2023-02-26T11:33:39;98776.00;;;3.40;60.63
22743;BME280;11538;48.884;8.696;2023-02-26T11:36:14;98781.97;;;3.47;60.28
22743;BME280;11538;48.884;8.696;2023-02-26T11:38:52;98783.34;;;3.50;60.36
22743;BME280;11538;48.884;8.696;2023-02-26T11:41:22;98778.28;;;3.54;60.70
22743;BME280;11538;48.884;8.696;2023-02-26T11:44:20;98773.09;;;3.47;60.52
22743;BME280;11538;48.884;8.696;2023-02-26T11:46:55;98774.25;;;3.29;61.61
22743;BME280;11538;48.884;8.696;2023-02-26T11:49:26;98773.84;;;3.15;61.68
22743;BME280;11538;48.884;8.696;2023-02-26T11:52:27;98777.16;;;3.00;62.47
22743;BME280;11538;48.884;8.696;2023-02-26T11:55:17;98776.16;;;3.06;62.64
22743;BME280;11538;48.884;8.696;2023-02-26T11:57:44;98774.53;;;3.05;63.06
22743;BME280;11538;48.884;8.696;2023-02-26T12:00:23;98776.22;;;3.11;62.96
22743;BME280;11538;48.884;8.696;2023-02-26T12:02:57;98767.31;;;3.05;62.95
22743;BME280;11538;48.884;8.696;2023-02-26T12:05:25;98774.09;;;3.13;62.53
22743;BME280;11538;48.884;8.696;2023-02-26T12:07:53;98776.31;;;3.21;62.15
22743;BME280;11538;48.884;8.696;2023-02-26T12:10:45;98776.69;;;3.30;61.63
22743;BME280;11538;48.884;8.696;2023-02-26T12:20:39;98776.63;;;3.25;60.55
22743;BME280;11538;48.884;8.696;2023-02-26T12:23:49;98786.69;;;3.13;60.82
22743;BME280;11538;48.884;8.696;2023-02-26T12:26:39;98778.38;;;3.14;61.93
22743;BME280;11538;48.884;8.696;2023-02-26T12:29:45;98784.63;;;3.20;61.71
22743;BME280;11538;48.884;8.696;2023-02-26T12:36:25;98780.16;;;3.03;62.76
22743;BME280;11538;48.884;8.696;2023-02-26T12:39:42;98793.00;;;3.01;62.25
22743;BME280;11538;48.884;8.696;2023-02-26T12:42:35;98786.63;;;3.07;62.14
22743;BME280;11538;48.884;8.696;2023-02-26T12:45:46;98794.97;;;3.11;60.76
22743;BME280;11538;48.884;8.696;2023-02-26T12:52:16;98787.50;;;3.13;61.28
22743;BME280;11538;48.884;8.696;2023-02-26T12:54:53;98794.22;;;3.16;62.11
22743;BME280;11538;48.884;8.696;2023-02-26T13:00:35;98795.34;;;3.20;63.20
22743;BME280;11538;48.884;8.696;2023-02-26T13:03:47;98801.38;;;3.10;63.90
22743;BME280;11538;48.884;8.696;2023-02-26T13:09:55;98801.13;;;2.89;66.72
22743;BME280;11538;48.884;8.696;2023-02-26T13:21:40;98792.16;;;3.23;67.26
22743;BME280;11538;48.884;8.696;2023-02-26T13:24:32;98800.94;;;3.41;66.30
22743;BME280;11538;48.884;8.696;2023-02-26T13:27:02;98802.94;;;3.50;65.48
22743;BME280;11538;48.884;8.696;2023-02-26T13:29:40;98801.31;;;3.49;62.43
22743;BME280;11538;48.884;8.696;2023-02-26T13:32:18;98805.06;;;3.48;62.24
22743;BME280;11538;48.884;8.696;2023-02-26T13:34:58;98810.41;;;3.48;61.18
22743;BME280;11538;48.884;8.696;2023-02-26T13:37:45;98806.28;;;3.41;60.89
22743;BME280;11538;48.884;8.696;2023-02-26T13:43:18;98809.25;;;3.66;60.31
22743;BME280;11538;48.884;8.696;2023-02-26T13:48:44;98804.31;;;3.86;59.79
22743;BME280;11538;48.884;8.696;2023-02-26T13:51:34;98809.75;;;3.91;59.64
22743;BME280;11538;48.884;8.696;2023-02-26T14:04:53;98800.19;;;3.73;57.85
22743;BME280;11538;48.884;8.696;2023-02-26T14:10:30;98801.41;;;3.60;56.96
22743;BME280;11538;48.884;8.696;2023-02-26T14:13:17;98810.06;;;3.67;56.32
22743;BME280;11538;48.884;8.696;2023-02-26T14:16:25;98813.06;;;3.76;54.81
22743;BME280;11538;48.884;8.696;2023-02-26T14:24:56;98823.00;;;3.75;52.19
22743;BME280;11538;48.884;8.696;2023-02-26T14:30:28;98826.16;;;3.67;53.45
22743;BME280;11538;48.884;8.696;2023-02-26T14:35:38;98830.41;;;3.63;54.69
22743;BME280;11538;48.884;8.696;2023-02-26T14:38:17;98825.53;;;3.60;54.92
22743;BME280;11538;48.884;8.696;2023-02-26T14:40:58;98830.31;;;3.53;55.26
22743;BME280;11538;48.884;8.696;2023-02-26T14:43:40;98833.72;;;3.48;55.17
22743;BME280;11538;48.884;8.696;2023-02-26T14:46:09;98835.34;;;3.49;54.77
22743;BME280;11538;48.884;8.696;2023-02-26T14:48:38;98843.59;;;3.42;54.72
22743;BME280;11538;48.884;8.696;2023-02-26T14:57:13;98841.81;;;3.53;53.66
22743;BME280;11538;48.884;8.696;2023-02-26T15:00:18;98847.56;;;3.62;53.71
22743;BME280;11538;48.884;8.696;2023-02-26T15:06:53;98856.97;;;3.64;53.45
22743;BME280;11538;48.884;8.696;2023-02-26T15:10:08;98854.50;;;3.58;53.96
22743;BME280;11538;48.884;8.696;2023-02-26T15:16:30;98857.31;;;3.46;55.78
22743;BME280;11538;48.884;8.696;2023-02-26T15:19:26;98860.53;;;3.48;56.92
22743;BME280;11538;48.884;8.696;2023-02-26T15:24:39;98872.03;;;3.43;57.06
22743;BME280;11538;48.884;8.696;2023-02-26T15:27:12;98870.84;;;3.34;56.44
22743;BME280;11538;48.884;8.696;2023-02-26T15:29:41;98873.53;;;3.34;56.31
22743;BME280;11538;48.884;8.696;2023-02-26T15:32:28;98876.28;;;3.39;55.66
22743;BME280;11538;48.884;8.696;2023-02-26T15:35:19;98869.53;;;3.36;55.20
22743;BME280;11538;48.884;8.696;2023-02-26T15:37:54;98878.75;;;3.46;54.07
22743;BME280;11538;48.884;8.696;2023-02-26T15:40:30;98881.50;;;3.51;53.84
22743;BME280;11538;48.884;8.696;2023-02-26T15:43:00;98878.25;;;3.49;53.52
22743;BME280;11538;48.884;8.696;2023-02-26T15:45:39;98890.09;;;3.53;54.07
22743;BME280;11538;48.884;8.696;2023-02-26T15:48:24;98887.34;;;3.48;53.80
22743;BME280;11538;48.884;8.696;2023-02-26T15:50:57;98886.00;;;3.45;53.82
22743;BME280;11538;48.884;8.696;2023-02-26T15:53:36;98887.91;;;3.50;53.47
22743;BME280;11538;48.884;8.696;2023-02-26T15:56:11;98894.91;;;3.51;53.56
22743;BME280;11538;48.884;8.696;2023-02-26T15:58:49;98894.06;;;3.45;53.69
22743;BME280;11538;48.884;8.696;2023-02-26T16:01:24;98900.72;;;3.43;53.86
22743;BME280;11538;48.884;8.696;2023-02-26T16:04:00;98904.16;;;3.38;53.65
22743;BME280;11538;48.884;8.696;2023-02-26T16:06:42;98908.56;;;3.27;53.98
22743;BME280;11538;48.884;8.696;2023-02-26T16:09:38;98901.56;;;3.26;53.54